FFT244 TJSJ-TNCM
Flight info
| Callsign | FFT244 |
|---|---|
| Flight time | 0h 42m |
| Altitude | 19000 |
| Route | JETSS1 SLUGO DCT PJM |
| Aircraft | A320/M-SDE3FGHIRWY/LB1 |
Departure
| Time | 2026-05-05 12:35 |
|---|---|
| Airport | Luis Munoz Marin International Airport (TJSJ) |
Arrival
| Time | 2026-05-05 13:18 |
|---|---|
| Airport | Princess Juliana International Airport (TNCM) |
| Time | Latitude | Longitude | Altitude | Speed | Heading |
|---|---|---|---|---|---|
| 2026-05-05 12:16 | 18.43627 | -66.00086 | 19 ft | 0 kts | 326° |
| 2026-05-05 12:28 | 18.43618 | -66.00080 | 19 ft | 4 kts | 322° |
| 2026-05-05 12:28 | 18.43600 | -66.00060 | 18 ft | 4 kts | 296° |
| 2026-05-05 12:28 | 18.43594 | -66.00036 | 18 ft | 1 kts | 266° |
| 2026-05-05 12:30 | 18.43556 | -66.00182 | 18 ft | 37 kts | 251° |
| 2026-05-05 12:31 | 18.43510 | -66.00225 | 18 ft | 14 kts | 191° |
| 2026-05-05 12:31 | 18.43475 | -66.00301 | 20 ft | 31 kts | 285° |
| 2026-05-05 12:31 | 18.43473 | -66.00477 | 18 ft | 47 kts | 268° |
| 2026-05-05 12:31 | 18.43467 | -66.00927 | 18 ft | 63 kts | 268° |
| 2026-05-05 12:32 | 18.43466 | -66.01304 | 18 ft | 45 kts | 269° |
| 2026-05-05 12:32 | 18.43506 | -66.01431 | 18 ft | 6 kts | 359° |
| 2026-05-05 12:32 | 18.43629 | -66.01434 | 17 ft | 39 kts | 2° |
| 2026-05-05 12:32 | 18.43760 | -66.01460 | 17 ft | 7 kts | 289° |
| 2026-05-05 12:33 | 18.43755 | -66.01495 | 16 ft | 4 kts | 260° |
| 2026-05-05 12:33 | 18.43758 | -66.01516 | 16 ft | 0 kts | 292° |
| 2026-05-05 12:33 | 18.43768 | -66.01531 | 18 ft | 12 kts | 311° |
| 2026-05-05 12:33 | 18.43853 | -66.01533 | 15 ft | 14 kts | 51° |
| 2026-05-05 12:34 | 18.43877 | -66.01483 | 15 ft | 0 kts | 66° |
| 2026-05-05 12:34 | 18.43884 | -66.01467 | 15 ft | 12 kts | 66° |
| 2026-05-05 12:34 | 18.44017 | -66.01139 | 16 ft | 84 kts | 67° |
| 2026-05-05 12:34 | 18.44335 | -66.00350 | 17 ft | 141 kts | 66° |
| 2026-05-05 12:35 | 18.44746 | -65.99308 | 325 ft | 160 kts | 68° |
| 2026-05-05 12:35 | 18.45199 | -65.98205 | 1057 ft | 162 kts | 71° |
| 2026-05-05 12:35 | 18.45636 | -65.97069 | 1444 ft | 181 kts | 72° |
| 2026-05-05 12:36 | 18.46683 | -65.94203 | 2187 ft | 230 kts | 73° |
| 2026-05-05 12:36 | 18.47284 | -65.92551 | 2679 ft | 251 kts | 72° |
| 2026-05-05 12:36 | 18.47921 | -65.90806 | 3500 ft | 257 kts | 72° |
| 2026-05-05 12:36 | 18.48576 | -65.89012 | 4379 ft | 261 kts | 71° |
| 2026-05-05 12:37 | 18.49229 | -65.87214 | 5246 ft | 265 kts | 71° |
| 2026-05-05 12:37 | 18.49881 | -65.85409 | 6085 ft | 269 kts | 71° |
| 2026-05-05 12:37 | 18.50560 | -65.83526 | 6879 ft | 274 kts | 71° |
| 2026-05-05 12:37 | 18.51239 | -65.81637 | 7624 ft | 279 kts | 71° |
| 2026-05-05 12:38 | 18.51931 | -65.79709 | 8358 ft | 284 kts | 71° |
| 2026-05-05 12:38 | 18.52639 | -65.77737 | 9090 ft | 290 kts | 71° |
| 2026-05-05 12:38 | 18.53358 | -65.75734 | 9813 ft | 295 kts | 70° |
| 2026-05-05 12:38 | 18.54094 | -65.73687 | 10360 ft | 307 kts | 71° |
| 2026-05-05 12:39 | 18.54874 | -65.71506 | 10562 ft | 330 kts | 70° |
| 2026-05-05 12:39 | 18.55704 | -65.69185 | 10917 ft | 344 kts | 70° |
| 2026-05-05 12:39 | 18.56557 | -65.66806 | 11509 ft | 350 kts | 70° |
| 2026-05-05 12:39 | 18.57429 | -65.64386 | 12163 ft | 354 kts | 70° |
| 2026-05-05 12:40 | 18.58304 | -65.61947 | 12806 ft | 358 kts | 70° |
| 2026-05-05 12:40 | 18.59186 | -65.59479 | 13437 ft | 362 kts | 70° |
| 2026-05-05 12:40 | 18.60076 | -65.56981 | 14025 ft | 365 kts | 70° |
| 2026-05-05 12:40 | 18.60974 | -65.54459 | 14563 ft | 369 kts | 69° |
| 2026-05-05 12:41 | 18.61894 | -65.51877 | 15089 ft | 374 kts | 69° |
| 2026-05-05 12:41 | 18.62816 | -65.49298 | 15611 ft | 378 kts | 68° |
| 2026-05-05 12:41 | 18.63750 | -65.46692 | 16148 ft | 382 kts | 68° |
| 2026-05-05 12:41 | 18.64690 | -65.44053 | 16690 ft | 386 kts | 68° |
| 2026-05-05 12:42 | 18.65625 | -65.41427 | 17241 ft | 389 kts | 68° |
| 2026-05-05 12:42 | 18.66495 | -65.38710 | 17791 ft | 393 kts | 75° |
| 2026-05-05 12:42 | 18.66894 | -65.35879 | 18328 ft | 399 kts | 86° |
| 2026-05-05 12:42 | 18.66740 | -65.32871 | 18801 ft | 404 kts | 98° |
| 2026-05-05 12:43 | 18.66258 | -65.29945 | 19028 ft | 405 kts | 99° |
| 2026-05-05 12:43 | 18.65776 | -65.27026 | 19087 ft | 402 kts | 99° |
| 2026-05-05 12:43 | 18.65300 | -65.24128 | 19097 ft | 400 kts | 99° |
| 2026-05-05 12:43 | 18.64822 | -65.21205 | 19102 ft | 414 kts | 99° |
| 2026-05-05 12:44 | 18.64323 | -65.18143 | 19097 ft | 434 kts | 99° |
| 2026-05-05 12:44 | 18.63802 | -65.14938 | 19097 ft | 451 kts | 99° |
| 2026-05-05 12:44 | 18.63447 | -65.12753 | 19096 ft | 461 kts | 99° |
| 2026-05-05 12:44 | 18.62711 | -65.08225 | 19098 ft | 476 kts | 99° |
| 2026-05-05 12:45 | 18.62145 | -65.04761 | 19102 ft | 482 kts | 99° |
| 2026-05-05 12:45 | 18.61574 | -65.01275 | 19100 ft | 484 kts | 99° |
| 2026-05-05 12:45 | 18.61001 | -64.97776 | 19097 ft | 484 kts | 99° |
| 2026-05-05 12:45 | 18.60613 | -64.95412 | 19098 ft | 484 kts | 99° |
| 2026-05-05 12:46 | 18.60036 | -64.91924 | 19097 ft | 484 kts | 99° |
| 2026-05-05 12:46 | 18.59454 | -64.88421 | 19098 ft | 484 kts | 99° |
| 2026-05-05 12:46 | 18.58874 | -64.84930 | 19093 ft | 484 kts | 99° |
| 2026-05-05 12:46 | 18.58301 | -64.81467 | 19002 ft | 476 kts | 99° |
| 2026-05-05 12:47 | 18.57736 | -64.78046 | 18895 ft | 471 kts | 99° |
| 2026-05-05 12:47 | 18.57173 | -64.74651 | 18783 ft | 470 kts | 99° |
| 2026-05-05 12:47 | 18.56604 | -64.71223 | 18664 ft | 469 kts | 99° |
| 2026-05-05 12:47 | 18.56051 | -64.67882 | 18561 ft | 468 kts | 99° |
| 2026-05-05 12:48 | 18.55483 | -64.64457 | 18452 ft | 467 kts | 99° |
| 2026-05-05 12:48 | 18.54923 | -64.61088 | 18334 ft | 467 kts | 99° |
| 2026-05-05 12:48 | 18.54367 | -64.57727 | 18205 ft | 466 kts | 99° |
| 2026-05-05 12:48 | 18.53808 | -64.54356 | 18071 ft | 465 kts | 99° |
| 2026-05-05 12:49 | 18.53248 | -64.51004 | 17948 ft | 464 kts | 99° |
| 2026-05-05 12:49 | 18.52687 | -64.47664 | 17833 ft | 463 kts | 99° |
| 2026-05-05 12:49 | 18.52127 | -64.44331 | 17691 ft | 462 kts | 99° |
| 2026-05-05 12:49 | 18.51569 | -64.41000 | 17568 ft | 461 kts | 99° |
| 2026-05-05 12:50 | 18.51011 | -64.37670 | 17528 ft | 460 kts | 99° |
| 2026-05-05 12:50 | 18.50453 | -64.34357 | 17502 ft | 460 kts | 99° |
| 2026-05-05 12:50 | 18.49894 | -64.31034 | 17474 ft | 460 kts | 99° |
| 2026-05-05 12:50 | 18.49334 | -64.27712 | 17451 ft | 460 kts | 99° |
| 2026-05-05 12:51 | 18.48774 | -64.24396 | 17422 ft | 460 kts | 99° |
| 2026-05-05 12:51 | 18.48211 | -64.21084 | 17398 ft | 459 kts | 99° |
| 2026-05-05 12:51 | 18.47647 | -64.17766 | 17366 ft | 459 kts | 99° |
| 2026-05-05 12:51 | 18.47086 | -64.14444 | 17339 ft | 459 kts | 99° |
| 2026-05-05 12:52 | 18.46544 | -64.11219 | 17323 ft | 459 kts | 99° |
| 2026-05-05 12:52 | 18.45966 | -64.07784 | 17264 ft | 459 kts | 99° |
| 2026-05-05 12:52 | 18.45397 | -64.04416 | 17076 ft | 463 kts | 99° |
| 2026-05-05 12:52 | 18.44822 | -64.01012 | 17108 ft | 468 kts | 99° |
| 2026-05-05 12:53 | 18.44247 | -63.97630 | 17108 ft | 470 kts | 99° |
| 2026-05-05 12:53 | 18.43678 | -63.94289 | 17108 ft | 470 kts | 99° |
| 2026-05-05 12:53 | 18.43089 | -63.90848 | 17108 ft | 470 kts | 99° |
| 2026-05-05 12:53 | 18.42508 | -63.87464 | 17106 ft | 470 kts | 99° |
| 2026-05-05 12:54 | 18.41346 | -63.80687 | 17113 ft | 470 kts | 99° |
| 2026-05-05 12:54 | 18.40768 | -63.77300 | 17111 ft | 470 kts | 99° |
| 2026-05-05 12:54 | 18.40189 | -63.73910 | 17113 ft | 470 kts | 99° |
| 2026-05-05 12:55 | 18.39606 | -63.70522 | 17105 ft | 471 kts | 100° |
| 2026-05-05 12:55 | 18.38650 | -63.67241 | 16926 ft | 466 kts | 114° |
| 2026-05-05 12:55 | 18.36902 | -63.64457 | 15797 ft | 451 kts | 134° |
| 2026-05-05 12:55 | 18.34688 | -63.62172 | 14629 ft | 440 kts | 137° |
| 2026-05-05 12:56 | 18.32427 | -63.59980 | 13425 ft | 430 kts | 139° |
| 2026-05-05 12:56 | 18.30233 | -63.57897 | 12186 ft | 420 kts | 138° |
| 2026-05-05 12:56 | 18.28118 | -63.55882 | 11001 ft | 410 kts | 138° |
| 2026-05-05 12:56 | 18.26021 | -63.53856 | 9816 ft | 400 kts | 137° |
| 2026-05-05 12:57 | 18.24009 | -63.51884 | 8570 ft | 391 kts | 136° |
| 2026-05-05 12:57 | 18.22707 | -63.50596 | 7770 ft | 384 kts | 136° |
| 2026-05-05 12:58 | 18.22504 | -63.50393 | 7646 ft | 383 kts | 136° |
| 2026-05-05 12:58 | 18.20797 | -63.48562 | 6474 ft | 365 kts | 134° |
| 2026-05-05 12:58 | 18.19019 | -63.46742 | 5269 ft | 356 kts | 136° |
| 2026-05-05 12:59 | 18.17218 | -63.44983 | 4047 ft | 347 kts | 137° |
| 2026-05-05 12:59 | 18.15446 | -63.43279 | 2913 ft | 338 kts | 137° |
| 2026-05-05 12:59 | 18.13775 | -63.41669 | 2399 ft | 314 kts | 136° |
| 2026-05-05 13:00 | 18.10857 | -63.38825 | 2065 ft | 257 kts | 135° |
| 2026-05-05 13:00 | 18.09621 | -63.37608 | 2012 ft | 229 kts | 135° |
| 2026-05-05 13:01 | 18.06707 | -63.34730 | 2042 ft | 162 kts | 135° |
| 2026-05-05 13:01 | 18.05903 | -63.33931 | 2048 ft | 153 kts | 135° |
| 2026-05-05 13:01 | 18.05137 | -63.33168 | 2034 ft | 150 kts | 136° |
| 2026-05-05 13:01 | 18.04380 | -63.32418 | 2027 ft | 149 kts | 136° |
| 2026-05-05 13:02 | 18.03630 | -63.31674 | 2021 ft | 148 kts | 135° |
| 2026-05-05 13:02 | 18.02882 | -63.30933 | 2020 ft | 148 kts | 135° |
| 2026-05-05 13:02 | 18.02224 | -63.30085 | 2021 ft | 148 kts | 120° |
| 2026-05-05 13:02 | 18.01814 | -63.29081 | 2021 ft | 149 kts | 108° |
| 2026-05-05 13:03 | 18.01677 | -63.27996 | 2020 ft | 151 kts | 92° |
| 2026-05-05 13:03 | 18.01775 | -63.27050 | 2019 ft | 151 kts | 86° |
| 2026-05-05 13:03 | 18.01939 | -63.25938 | 2023 ft | 152 kts | 86° |
| 2026-05-05 13:03 | 18.02095 | -63.24855 | 2025 ft | 149 kts | 86° |
| 2026-05-05 13:04 | 18.02251 | -63.23762 | 2020 ft | 149 kts | 85° |
| 2026-05-05 13:04 | 18.02402 | -63.22706 | 2016 ft | 148 kts | 85° |
| 2026-05-05 13:04 | 18.02454 | -63.22344 | 2011 ft | 150 kts | 84° |
| 2026-05-05 13:05 | 18.02850 | -63.19604 | 1514 ft | 150 kts | 85° |
| 2026-05-05 13:05 | 18.03004 | -63.18525 | 1314 ft | 144 kts | 84° |
| 2026-05-05 13:05 | 18.03150 | -63.17510 | 1116 ft | 138 kts | 84° |
| 2026-05-05 13:05 | 18.03293 | -63.16516 | 934 ft | 137 kts | 85° |
| 2026-05-05 13:06 | 18.03429 | -63.15564 | 775 ft | 137 kts | 86° |
| 2026-05-05 13:06 | 18.03583 | -63.14561 | 623 ft | 132 kts | 83° |
| 2026-05-05 13:06 | 18.03728 | -63.13627 | 419 ft | 125 kts | 85° |
| 2026-05-05 13:06 | 18.03812 | -63.13067 | 298 ft | 122 kts | 84° |
| 2026-05-05 13:07 | 18.03937 | -63.12025 | 145 ft | 134 kts | 84° |
| 2026-05-05 13:07 | 18.04093 | -63.10893 | 73 ft | 118 kts | 81° |
| 2026-05-05 13:07 | 18.04201 | -63.10202 | 374 ft | 137 kts | 82° |
| 2026-05-05 13:07 | 18.04147 | -63.09099 | 792 ft | 145 kts | 110° |
| 2026-05-05 13:08 | 18.03441 | -63.08299 | 1323 ft | 153 kts | 154° |
| 2026-05-05 13:08 | 18.02306 | -63.08101 | 1812 ft | 165 kts | 167° |
| 2026-05-05 13:08 | 18.01229 | -63.07926 | 1958 ft | 182 kts | 165° |
| 2026-05-05 13:08 | 17.99824 | -63.07665 | 2007 ft | 207 kts | 166° |
| 2026-05-05 13:09 | 17.98371 | -63.07529 | 2002 ft | 217 kts | 185° |
| 2026-05-05 13:09 | 17.96924 | -63.08050 | 2014 ft | 225 kts | 210° |
| 2026-05-05 13:09 | 17.95857 | -63.09276 | 2022 ft | 232 kts | 234° |
| 2026-05-05 13:09 | 17.95158 | -63.10818 | 2016 ft | 238 kts | 255° |
| 2026-05-05 13:10 | 17.94967 | -63.12545 | 2025 ft | 239 kts | 265° |
| 2026-05-05 13:10 | 17.94871 | -63.14288 | 2019 ft | 241 kts | 265° |
| 2026-05-05 13:10 | 17.94790 | -63.16049 | 2018 ft | 242 kts | 265° |
| 2026-05-05 13:10 | 17.94732 | -63.17808 | 2020 ft | 239 kts | 265° |
| 2026-05-05 13:11 | 17.94674 | -63.19484 | 2023 ft | 240 kts | 265° |
| 2026-05-05 13:11 | 17.94584 | -63.21348 | 2021 ft | 239 kts | 261° |
| 2026-05-05 13:11 | 17.94339 | -63.23067 | 2024 ft | 237 kts | 260° |
| 2026-05-05 13:11 | 17.94457 | -63.24798 | 2019 ft | 241 kts | 288° |
| 2026-05-05 13:12 | 17.95323 | -63.26291 | 2021 ft | 241 kts | 318° |
| 2026-05-05 13:12 | 17.96727 | -63.27219 | 2028 ft | 239 kts | 339° |
| 2026-05-05 13:12 | 17.98264 | -63.27793 | 2018 ft | 227 kts | 357° |
| 2026-05-05 13:12 | 17.99754 | -63.27664 | 2031 ft | 205 kts | 24° |
| 2026-05-05 13:13 | 18.00922 | -63.26997 | 2028 ft | 178 kts | 46° |
| 2026-05-05 13:13 | 18.01672 | -63.26080 | 2032 ft | 148 kts | 66° |
| 2026-05-05 13:13 | 18.02043 | -63.25137 | 2024 ft | 135 kts | 82° |
| 2026-05-05 13:13 | 18.02195 | -63.24162 | 2027 ft | 135 kts | 85° |
| 2026-05-05 13:14 | 18.02339 | -63.23164 | 2000 ft | 136 kts | 85° |
| 2026-05-05 13:14 | 18.02478 | -63.22199 | 1884 ft | 136 kts | 85° |
| 2026-05-05 13:14 | 18.02619 | -63.21217 | 1767 ft | 136 kts | 87° |
| 2026-05-05 13:14 | 18.02761 | -63.20226 | 1638 ft | 135 kts | 86° |
| 2026-05-05 13:15 | 18.02901 | -63.19252 | 1436 ft | 135 kts | 85° |
| 2026-05-05 13:15 | 18.03049 | -63.18282 | 1309 ft | 134 kts | 83° |
| 2026-05-05 13:15 | 18.03205 | -63.17299 | 1165 ft | 134 kts | 85° |
| 2026-05-05 13:15 | 18.03358 | -63.16329 | 975 ft | 135 kts | 85° |
| 2026-05-05 13:16 | 18.03466 | -63.15650 | 760 ft | 136 kts | 87° |
| 2026-05-05 13:16 | 18.03517 | -63.15002 | 553 ft | 133 kts | 92° |
| 2026-05-05 13:16 | 18.03575 | -63.14347 | 443 ft | 138 kts | 82° |
| 2026-05-05 13:17 | 18.03784 | -63.13297 | 371 ft | 136 kts | 86° |
| 2026-05-05 13:17 | 18.03910 | -63.12207 | 132 ft | 136 kts | 84° |
| 2026-05-05 13:17 | 18.04053 | -63.11188 | 22 ft | 117 kts | 84° |
| 2026-05-05 13:17 | 18.04135 | -63.10594 | 21 ft | 60 kts | 82° |
| 2026-05-05 13:18 | 18.04183 | -63.10249 | 20 ft | 31 kts | 81° |
| 2026-05-05 13:18 | 18.04205 | -63.10099 | 19 ft | 28 kts | 82° |
| 2026-05-05 13:18 | 18.04269 | -63.09911 | 20 ft | 25 kts | 62° |
| 2026-05-05 13:18 | 18.04236 | -63.09852 | 21 ft | 2 kts | 233° |
| 2026-05-05 13:19 | 18.04214 | -63.10017 | 22 ft | 64 kts | 255° |
| 2026-05-05 13:19 | 18.04124 | -63.10662 | 21 ft | 79 kts | 264° |
| 2026-05-05 13:19 | 18.04086 | -63.10954 | 24 ft | 21 kts | 271° |
| 2026-05-05 13:19 | 18.04112 | -63.10988 | 22 ft | 3 kts | 328° |
| 2026-05-05 13:20 | 18.04165 | -63.11013 | 21 ft | 22 kts | 316° |
| 2026-05-05 13:20 | 18.04171 | -63.11037 | 21 ft | 0 kts | 256° |
| 2026-05-05 13:21 | 18.04168 | -63.11088 | 21 ft | 7 kts | 302° |
| 2026-05-05 13:21 | 18.04213 | -63.11107 | 21 ft | 6 kts | 341° |
| 2026-05-05 13:21 | 18.04231 | -63.11141 | 21 ft | 5 kts | 278° |
| 2026-05-05 13:21 | 18.04248 | -63.11161 | 21 ft | 3 kts | 332° |
| 2026-05-05 13:22 | 18.04263 | -63.11166 | 21 ft | 1 kts | 355° |
| 2026-05-05 13:22 | 18.04265 | -63.11163 | 21 ft | 0 kts | 30° |
| 2026-05-05 13:22 | 18.04265 | -63.11160 | 21 ft | 0 kts | 65° |
| 2026-05-05 13:22 | 18.04264 | -63.11159 | 21 ft | 0 kts | 73° |
| 2026-05-05 13:23 | 18.04262 | -63.11157 | 21 ft | 0 kts | 103° |
| 2026-05-05 13:23 | 18.04258 | -63.11156 | 21 ft | 0 kts | 149° |
| 2026-05-05 13:23 | 18.04255 | -63.11156 | 22 ft | 1 kts | 165° |
| 2026-05-05 13:23 | 18.04256 | -63.11157 | 21 ft | 0 kts | 169° |
| 2026-05-05 13:24 | 18.04263 | -63.11158 | 21 ft | 0 kts | 168° |
| 2026-05-05 13:25 | 18.04262 | -63.11165 | 21 ft | 0 kts | 352° |
| 2026-05-05 13:55 | 18.04261 | -63.11165 | 21 ft | 0 kts | 352° |
| 2026-05-05 13:59 | 18.04261 | -63.11164 | 21 ft | 0 kts | 352° |
| 2026-05-05 13:59 | 18.04261 | -63.11165 | 21 ft | 0 kts | 352° |
| 2026-05-05 14:00 | 18.04261 | -63.11164 | 21 ft | 0 kts | 352° |